createdAt,value
2019-02-24T00:01:10.887Z,103497.39
2019-02-24T00:03:16.939Z,103488.67
2019-02-24T00:05:23.950Z,103493.11
2019-02-24T00:07:30.183Z,103493.28
2019-02-24T00:09:36.224Z,103489.97
2019-02-24T00:11:42.507Z,103484.47
2019-02-24T00:13:48.666Z,103485.47
2019-02-24T00:15:54.826Z,103482.88
2019-02-24T00:18:01.826Z,103482.09
2019-02-24T00:20:08.157Z,103481.81
2019-02-24T00:22:14.562Z,103484.73
2019-02-24T00:24:22.869Z,103477.38
2019-02-24T00:26:28.977Z,103472.31
2019-02-24T00:28:36.150Z,103479.10
2019-02-24T00:30:42.317Z,103475.23
2019-02-24T00:32:50.327Z,103464.80
2019-02-24T00:34:58.006Z,103472.64
2019-02-24T00:37:04.179Z,103470.45
2019-02-24T00:39:10.441Z,103465.62
2019-02-24T00:41:16.517Z,103461.41
2019-02-24T00:43:22.669Z,103458.27
2019-02-24T00:45:28.737Z,103456.98
2019-02-24T00:47:36.428Z,103457.44
2019-02-24T00:49:44.603Z,103458.83
2019-02-24T00:51:52.294Z,103464.16
2019-02-24T00:53:58.849Z,103465.39
2019-02-24T00:56:07.427Z,103463.66
2019-02-24T00:58:16.722Z,103463.20
2019-02-24T01:00:23.060Z,103467.24
2019-02-24T01:02:29.257Z,103469.00
2019-02-24T01:04:35.379Z,103466.51
2019-02-24T01:06:44.924Z,103471.34
2019-02-24T01:08:50.975Z,103470.64
2019-02-24T01:10:57.546Z,103467.63
2019-02-24T01:13:03.656Z,103470.80
2019-02-24T01:15:11.901Z,103466.03
2019-02-24T01:17:18.052Z,103465.23
2019-02-24T01:19:24.208Z,103462.38
2019-02-24T01:21:30.388Z,103465.47
2019-02-24T01:23:37.976Z,103461.59
2019-02-24T01:25:44.227Z,103459.73
2019-02-24T01:27:51.646Z,103471.13
2019-02-24T01:29:57.754Z,103469.34
2019-02-24T01:32:03.749Z,103469.50
2019-02-24T01:34:09.677Z,103466.91
2019-02-24T01:36:16.134Z,103469.20
2019-02-24T01:38:22.327Z,103463.44
2019-02-24T01:40:28.350Z,103467.31
2019-02-24T01:42:34.535Z,103463.87
2019-02-24T01:44:40.758Z,103467.16
2019-02-24T01:46:46.861Z,103458.20
2019-02-24T01:48:53.096Z,103465.40
2019-02-24T01:50:59.245Z,103467.09
2019-02-24T01:53:05.195Z,103464.01
2019-02-24T01:55:11.391Z,103459.64
2019-02-24T01:57:17.627Z,103465.94
2019-02-24T01:59:23.804Z,103471.05
2019-02-24T02:01:29.953Z,103474.98
2019-02-24T02:03:35.997Z,103464.48
2019-02-24T02:05:42.202Z,103469.89
2019-02-24T02:07:48.263Z,103470.38
2019-02-24T02:09:54.354Z,103460.45
2019-02-24T02:12:00.408Z,103465.61
2019-02-24T02:14:06.664Z,103451.96
2019-02-24T02:16:12.622Z,103460.61
2019-02-24T02:18:18.778Z,103453.19
2019-02-24T02:20:24.577Z,103448.52
2019-02-24T02:22:30.694Z,103446.89
2019-02-24T02:24:36.729Z,103441.62
2019-02-24T02:26:43.034Z,103435.10
2019-02-24T02:28:49.276Z,103430.23
2019-02-24T02:30:55.374Z,103429.77
2019-02-24T02:33:02.606Z,103422.02
2019-02-24T02:35:10.104Z,103411.69
2019-02-24T02:37:16.191Z,103403.94
2019-02-24T02:39:22.458Z,103403.44
2019-02-24T02:41:28.616Z,103402.80
2019-02-24T02:43:34.832Z,103395.61
2019-02-24T02:45:41.069Z,103393.92
2019-02-24T02:47:47.238Z,103383.58
2019-02-24T02:49:53.420Z,103385.52
2019-02-24T02:51:59.594Z,103389.79
2019-02-24T02:54:05.829Z,103391.81
2019-02-24T02:56:13.161Z,103387.05
2019-02-24T02:58:19.311Z,103385.30
2019-02-24T03:00:29.431Z,103376.25
2019-02-24T03:02:35.568Z,103369.80
2019-02-24T03:04:41.654Z,103375.12
2019-02-24T03:06:49.539Z,103372.99
2019-02-24T03:08:55.704Z,103369.12
2019-02-24T03:11:01.883Z,103368.81
2019-02-24T03:13:08.544Z,103362.42
2019-02-24T03:15:14.691Z,103354.67
2019-02-24T03:17:20.835Z,103357.34
2019-02-24T03:19:26.899Z,103350.95
2019-02-24T03:21:33.053Z,103345.78
2019-02-24T03:23:39.234Z,103342.89
2019-02-24T03:25:45.314Z,103339.41
2019-02-24T03:27:52.570Z,103332.55
2019-02-24T03:29:58.820Z,103330.42
2019-02-24T03:32:05.093Z,103342.21
2019-02-24T03:34:11.329Z,103344.73
2019-02-24T03:36:17.490Z,103337.48
2019-02-24T03:38:23.733Z,103336.24
2019-02-24T03:40:30.108Z,103335.05
2019-02-24T03:42:36.370Z,103326.00
2019-02-24T03:44:42.627Z,103322.19
2019-02-24T03:46:48.770Z,103320.44
2019-02-24T03:48:54.931Z,103313.54
2019-02-24T03:51:01.109Z,103313.97
2019-02-24T03:53:07.362Z,103305.38
2019-02-24T03:55:13.550Z,103307.17
2019-02-24T03:57:19.895Z,103299.47
2019-02-24T03:59:26.116Z,103291.81
2019-02-24T04:01:32.398Z,103290.03
2019-02-24T04:03:38.464Z,103279.39
2019-02-24T04:05:44.716Z,103259.95
2019-02-24T04:07:51.006Z,103266.06
2019-02-24T04:09:57.148Z,103279.08
2019-02-24T04:12:03.389Z,103281.27
2019-02-24T04:14:09.590Z,103280.03
2019-02-24T04:16:15.771Z,103277.69
2019-02-24T04:18:21.938Z,103274.95
2019-02-24T04:20:28.137Z,103278.69
2019-02-24T04:22:34.304Z,103275.16
2019-02-24T04:24:40.651Z,103279.98
2019-02-24T04:26:46.963Z,103276.84
2019-02-24T04:28:53.477Z,103261.34
2019-02-24T04:30:59.731Z,103263.98
2019-02-24T04:33:05.784Z,103263.52
2019-02-24T04:35:11.959Z,103268.69
2019-02-24T04:37:18.215Z,103263.98
2019-02-24T04:39:24.449Z,103258.81
2019-02-24T04:41:30.630Z,103259.30
2019-02-24T04:43:36.733Z,103252.84
2019-02-24T04:45:43.045Z,103252.49
2019-02-24T04:47:49.157Z,103248.77
2019-02-24T04:49:55.340Z,103241.84
2019-02-24T04:52:01.612Z,103254.97
2019-02-24T04:54:07.630Z,103250.78
2019-02-24T04:56:13.932Z,103250.93
2019-02-24T04:58:21.357Z,103257.54
2019-02-24T05:00:27.508Z,103251.08
2019-02-24T05:02:33.857Z,103255.84
2019-02-24T05:04:40.108Z,103255.01
2019-02-24T05:06:46.371Z,103254.61
2019-02-24T05:08:52.524Z,103248.14
2019-02-24T05:11:02.735Z,103250.82
2019-02-24T05:13:09.040Z,103243.86
2019-02-24T05:15:15.293Z,103246.45
2019-02-24T05:17:21.564Z,103242.52
2019-02-24T05:19:27.822Z,103245.91
2019-02-24T05:21:34.077Z,103240.86
2019-02-24T05:23:40.325Z,103239.47
2019-02-24T05:25:46.602Z,103246.69
2019-02-24T05:27:52.834Z,103244.50
2019-02-24T05:29:58.996Z,103241.11
2019-02-24T05:32:05.173Z,103237.94
2019-02-24T05:34:11.364Z,103246.73
2019-02-24T05:36:17.581Z,103238.55
2019-02-24T05:38:23.845Z,103232.11
2019-02-24T05:40:30.115Z,103227.11
2019-02-24T05:42:36.357Z,103219.34
2019-02-24T05:44:42.727Z,103221.53
2019-02-24T05:46:48.988Z,103221.48
2019-02-24T05:48:55.349Z,103212.64
2019-02-24T05:51:01.635Z,103207.33
2019-02-24T05:53:07.904Z,103199.51
2019-02-24T05:55:14.171Z,103200.24
2019-02-24T05:57:20.507Z,103195.69
2019-02-24T05:59:26.783Z,103198.81
2019-02-24T06:01:33.119Z,103195.69
2019-02-24T06:03:39.397Z,103197.11
2019-02-24T06:05:45.602Z,103204.47
2019-02-24T06:07:51.805Z,103203.72
2019-02-24T06:09:57.924Z,103208.30
2019-02-24T06:12:03.919Z,103211.08
2019-02-24T06:14:10.033Z,103208.45
2019-02-24T06:16:16.264Z,103210.07
2019-02-24T06:18:22.503Z,103212.75
2019-02-24T06:20:28.773Z,103212.40
2019-02-24T06:22:34.973Z,103205.52
2019-02-24T06:24:41.038Z,103210.16
2019-02-24T06:26:46.966Z,103220.24
2019-02-24T06:28:52.879Z,103215.20
2019-02-24T06:30:58.987Z,103222.16
2019-02-24T06:33:04.961Z,103217.74
2019-02-24T06:35:11.305Z,103203.15
2019-02-24T06:37:17.397Z,103197.30
2019-02-24T06:39:23.638Z,103187.94
2019-02-24T06:41:29.771Z,103185.70
2019-02-24T06:43:35.935Z,103186.06
2019-02-24T06:45:43.355Z,103187.94
2019-02-24T06:47:51.275Z,103196.01
2019-02-24T06:49:57.397Z,103187.89
2019-02-24T06:52:03.666Z,103182.44
2019-02-24T06:54:09.754Z,103186.05
2019-02-24T06:56:15.954Z,103180.87
2019-02-24T06:58:22.022Z,103173.99
2019-02-24T07:02:47.090Z,103174.72
2019-02-24T07:04:53.291Z,103172.75
2019-02-24T07:06:59.270Z,103175.19
2019-02-24T07:09:06.740Z,103181.66
2019-02-24T07:11:12.894Z,103182.55
2019-02-24T07:13:18.947Z,103185.68
2019-02-24T07:15:24.992Z,103190.05
2019-02-24T07:17:31.045Z,103184.81
2019-02-24T07:19:37.227Z,103175.36
2019-02-24T07:21:43.384Z,103172.75
2019-02-24T07:23:49.520Z,103166.77
2019-02-24T07:25:55.585Z,103168.52
2019-02-24T07:28:01.640Z,103168.03
2019-02-24T07:30:10.463Z,103169.61
2019-02-24T07:32:16.511Z,103171.47
2019-02-24T07:34:22.578Z,103178.52
2019-02-24T07:36:29.644Z,103167.81
2019-02-24T07:38:35.826Z,103164.21
2019-02-24T07:40:42.327Z,103160.33
2019-02-24T07:42:48.537Z,103162.15
2019-02-24T07:44:54.487Z,103161.22
2019-02-24T07:47:00.552Z,103161.30
2019-02-24T07:49:06.808Z,103164.46
2019-02-24T07:51:12.966Z,103163.65
2019-02-24T07:53:19.027Z,103160.77
2019-02-24T07:55:25.123Z,103157.91
2019-02-24T07:57:31.340Z,103162.44
2019-02-24T07:59:37.592Z,103159.84
2019-02-24T08:01:43.788Z,103160.58
2019-02-24T08:03:49.805Z,103157.25
2019-02-24T08:05:55.850Z,103153.94
2019-02-24T08:08:02.598Z,103148.67
2019-02-24T08:10:09.722Z,103146.44
2019-02-24T08:12:15.875Z,103150.81
2019-02-24T08:14:22.035Z,103140.98
2019-02-24T08:16:28.083Z,103133.03
2019-02-24T08:18:34.126Z,103135.17
2019-02-24T08:20:40.304Z,103139.11
2019-02-24T08:22:46.451Z,103136.41
2019-02-24T08:24:52.720Z,103131.56
2019-02-24T08:26:58.876Z,103134.58
2019-02-24T08:29:05.049Z,103130.23
2019-02-24T08:31:11.296Z,103129.80
2019-02-24T08:33:17.552Z,103132.16
2019-02-24T08:35:23.822Z,103130.66
2019-02-24T08:37:29.972Z,103132.31
2019-02-24T08:39:36.053Z,103123.39
2019-02-24T08:41:42.193Z,103124.38
2019-02-24T08:43:48.555Z,103125.31
2019-02-24T08:45:54.813Z,103124.18
2019-02-24T08:48:01.067Z,103122.41
2019-02-24T08:50:12.052Z,103120.59
2019-02-24T08:52:18.214Z,103121.17
2019-02-24T08:54:24.354Z,103122.73
2019-02-24T08:56:30.277Z,103124.80
2019-02-24T08:58:36.465Z,103121.78
2019-02-24T09:00:50.706Z,103123.46
2019-02-24T09:02:52.533Z,103122.20
2019-02-24T09:04:58.439Z,103117.61
2019-02-24T09:07:04.602Z,103117.27
2019-02-24T09:09:10.776Z,103119.77
2019-02-24T09:11:16.999Z,103115.29
2019-02-24T09:13:23.229Z,103111.88
2019-02-24T09:15:29.319Z,103118.98
2019-02-24T09:17:35.582Z,103113.48
2019-02-24T09:19:41.837Z,103115.28
2019-02-24T09:21:48.114Z,103113.88
2019-02-24T09:23:54.361Z,103112.36
2019-02-24T09:26:00.523Z,103112.46
2019-02-24T09:28:06.772Z,103116.05
2019-02-24T09:30:14.964Z,103117.48
2019-02-24T09:32:21.245Z,103115.36
2019-02-24T09:34:27.368Z,103114.48
2019-02-24T09:36:33.485Z,103114.32
2019-02-24T09:38:41.256Z,103112.32
2019-02-24T09:40:47.523Z,103108.83
2019-02-24T09:42:53.772Z,103108.20
2019-02-24T09:45:01.353Z,103112.41
2019-02-24T09:47:07.621Z,103112.11
2019-02-24T09:49:13.872Z,103112.48
2019-02-24T09:51:20.000Z,103110.46
2019-02-24T09:53:26.294Z,103109.92
2019-02-24T09:55:33.984Z,103107.77
2019-02-24T09:57:40.273Z,103112.80
2019-02-24T10:00:03.424Z,103115.15
2019-02-24T10:02:14.076Z,103110.45
2019-02-24T10:04:20.224Z,103115.21
2019-02-24T10:06:26.385Z,103109.92
2019-02-24T10:08:32.563Z,103109.42
2019-02-24T10:10:38.907Z,103104.78
2019-02-24T10:12:45.164Z,103100.25
2019-02-24T10:14:51.445Z,103095.77
2019-02-24T10:16:57.593Z,103103.70
2019-02-24T10:19:03.954Z,103102.54
2019-02-24T10:21:11.564Z,103103.42
2019-02-24T10:23:17.883Z,103102.56
2019-02-24T10:25:24.163Z,103103.61
2019-02-24T10:27:30.323Z,103101.69
2019-02-24T10:29:36.572Z,103106.56
2019-02-24T10:31:42.845Z,103103.29
2019-02-24T10:33:49.096Z,103103.14
2019-02-24T10:35:55.355Z,103107.73
2019-02-24T10:38:02.538Z,103115.28
2019-02-24T10:40:15.370Z,103114.34
2019-02-24T10:42:21.895Z,103110.23
2019-02-24T10:44:28.177Z,103114.97
2019-02-24T10:46:34.449Z,103112.73
2019-02-24T10:48:40.912Z,103108.56
2019-02-24T10:50:47.291Z,103110.39
2019-02-24T10:52:55.080Z,103116.02
2019-02-24T10:55:01.324Z,103113.81
2019-02-24T10:57:12.713Z,103105.86
2019-02-24T10:59:17.015Z,103104.67
2019-02-24T11:01:29.709Z,103105.30
2019-02-24T11:03:31.593Z,103109.98
2019-02-24T11:05:39.404Z,103100.22
2019-02-24T11:07:45.865Z,103094.98
2019-02-24T11:09:52.112Z,103090.45
2019-02-24T11:11:58.372Z,103085.41
2019-02-24T11:14:05.255Z,103083.27
2019-02-24T11:16:12.128Z,103093.36
2019-02-24T11:18:18.497Z,103089.20
2019-02-24T11:20:25.189Z,103085.33
2019-02-24T11:22:31.750Z,103088.27
2019-02-24T11:24:37.982Z,103084.22
2019-02-24T11:26:45.881Z,103082.45
2019-02-24T11:28:52.153Z,103085.83
2019-02-24T11:30:58.823Z,103083.25
2019-02-24T11:33:05.079Z,103083.67
2019-02-24T11:35:13.076Z,103080.53
2019-02-24T11:37:23.418Z,103077.84
2019-02-24T11:39:32.452Z,103077.27
2019-02-24T11:41:38.782Z,103068.17
2019-02-24T11:43:45.184Z,103067.64
2019-02-24T11:45:51.425Z,103070.53
2019-02-24T11:47:58.624Z,103071.06
2019-02-24T11:50:07.342Z,103069.14
2019-02-24T11:52:14.834Z,103068.41
2019-02-24T11:54:21.804Z,103068.36
2019-02-24T11:56:28.595Z,103066.63
2019-02-24T11:58:36.483Z,103067.02
2019-02-24T12:00:43.757Z,103061.20
2019-02-24T12:02:50.015Z,103060.39
2019-02-24T12:04:56.306Z,103065.09
2019-02-24T12:07:02.861Z,103064.44
2019-02-24T12:09:09.328Z,103067.87
2019-02-24T12:11:17.132Z,103066.82
2019-02-24T12:13:23.474Z,103067.05
2019-02-24T12:15:31.495Z,103070.04
2019-02-24T12:17:37.826Z,103069.61
2019-02-24T12:19:44.197Z,103066.45
2019-02-24T12:21:50.384Z,103062.86
2019-02-24T12:23:56.825Z,103057.15
2019-02-24T12:26:03.490Z,103051.03
2019-02-24T12:28:10.868Z,103048.04
2019-02-24T12:30:18.894Z,103041.20
2019-02-24T12:32:45.959Z,103046.10
2019-02-24T12:34:52.396Z,103041.95
2019-02-24T12:36:59.054Z,103041.77
2019-02-24T12:39:06.331Z,103038.05
2019-02-24T12:41:15.879Z,103027.75
2019-02-24T12:43:22.128Z,103035.25
2019-02-24T12:45:28.297Z,103036.20
2019-02-24T12:47:34.570Z,103034.98
2019-02-24T12:49:42.384Z,103038.06
2019-02-24T12:51:49.241Z,103045.95
2019-02-24T12:53:57.335Z,103036.33
2019-02-24T12:56:03.816Z,103033.16
2019-02-24T12:58:10.559Z,103027.81
2019-02-24T13:00:26.491Z,103030.30
2019-02-24T13:02:33.107Z,103027.61
2019-02-24T13:04:40.815Z,103029.70
2019-02-24T13:06:47.291Z,103026.59
2019-02-24T13:08:53.638Z,103020.50
2019-02-24T13:11:00.131Z,103018.80
2019-02-24T13:13:06.580Z,103008.42
2019-02-24T13:15:13.311Z,103011.57
2019-02-24T13:17:20.649Z,102999.78
2019-02-24T13:19:31.392Z,102999.39
2019-02-24T13:21:37.843Z,102998.50
2019-02-24T13:23:44.460Z,102997.69
2019-02-24T13:25:50.848Z,103002.56
2019-02-24T13:27:59.248Z,102992.57
2019-02-24T13:30:11.977Z,102993.48
2019-02-24T13:32:19.558Z,103001.86
2019-02-24T13:34:25.971Z,102998.91
2019-02-24T13:36:32.367Z,102997.64
2019-02-24T13:38:40.240Z,102995.66
2019-02-24T13:40:48.138Z,102995.34
2019-02-24T13:42:54.628Z,102998.08
2019-02-24T13:45:02.386Z,102991.98
2019-02-24T13:47:09.165Z,102992.52
2019-02-24T13:49:17.065Z,102992.14
2019-02-24T13:51:23.630Z,102992.60
2019-02-24T13:53:31.219Z,102989.98
2019-02-24T13:55:39.074Z,102994.34
2019-02-24T13:57:45.289Z,102997.91
2019-02-24T13:59:51.616Z,102991.79
2019-02-24T14:01:58.024Z,102994.84
2019-02-24T14:04:04.393Z,102992.20
2019-02-24T14:06:10.634Z,102993.96
2019-02-24T14:08:17.315Z,102991.32
2019-02-24T14:10:23.650Z,102980.82
2019-02-24T14:12:29.904Z,102979.91
2019-02-24T14:14:37.833Z,102981.64
2019-02-24T14:16:44.511Z,102981.17
2019-02-24T14:18:51.993Z,102974.14
2019-02-24T14:21:00.004Z,102982.91
2019-02-24T14:23:08.407Z,102975.87
2019-02-24T14:25:16.404Z,102980.68
2019-02-24T14:27:22.952Z,102986.81
2019-02-24T14:29:29.837Z,102986.83
2019-02-24T14:31:36.292Z,102972.39
2019-02-24T14:33:42.562Z,102979.80
2019-02-24T14:35:49.114Z,102966.73
2019-02-24T14:37:55.590Z,102964.53
2019-02-24T14:40:02.063Z,102968.48
2019-02-24T14:42:14.852Z,102967.59
2019-02-24T14:44:25.433Z,102960.62
2019-02-24T14:46:33.650Z,102962.79
2019-02-24T14:48:39.825Z,102966.30
2019-02-24T14:50:47.829Z,102979.42
2019-02-24T14:52:56.196Z,102992.97
2019-02-24T14:55:05.173Z,102981.20
2019-02-24T14:57:11.479Z,102969.37
2019-02-24T14:59:18.364Z,102965.89
2019-02-24T15:01:25.042Z,102958.48
2019-02-24T15:03:31.713Z,102972.01
2019-02-24T15:05:39.641Z,102970.70
2019-02-24T15:07:47.204Z,102964.53
2019-02-24T15:09:53.870Z,102966.30
2019-02-24T15:12:02.993Z,102955.74
2019-02-24T15:14:10.174Z,102953.14
2019-02-24T15:16:16.675Z,102949.18
2019-02-24T15:18:23.022Z,102949.14
2019-02-24T15:20:29.783Z,102946.95
2019-02-24T15:22:36.133Z,102957.86
2019-02-24T15:24:42.803Z,102954.78
2019-02-24T15:26:49.281Z,102959.56
2019-02-24T15:28:55.858Z,102966.95
2019-02-24T15:31:03.800Z,102967.33
2019-02-24T15:33:11.139Z,102965.06
2019-02-24T15:35:17.884Z,102968.50
2019-02-24T15:37:24.061Z,102971.55
2019-02-24T15:39:30.722Z,102981.18
2019-02-24T15:41:37.418Z,102978.98
2019-02-24T15:43:43.725Z,102986.42
2019-02-24T15:45:51.868Z,102992.98
2019-02-24T15:48:00.213Z,102991.25
2019-02-24T15:50:10.914Z,102986.86
2019-02-24T15:52:18.543Z,102977.58
2019-02-24T15:54:25.056Z,102981.00
2019-02-24T15:56:31.378Z,102976.08
2019-02-24T15:58:37.750Z,102977.77
2019-02-24T16:00:44.296Z,102979.80
2019-02-24T16:02:51.103Z,102985.38
2019-02-24T16:04:57.409Z,102980.92
2019-02-24T16:07:05.526Z,102983.45
2019-02-24T16:09:12.149Z,102984.58
2019-02-24T16:11:18.713Z,102970.50
2019-02-24T16:13:26.878Z,102977.43
2019-02-24T16:15:34.029Z,102978.09
2019-02-24T16:17:42.194Z,102974.91
2019-02-24T16:19:48.918Z,102979.13
2019-02-24T16:21:55.860Z,102983.77
2019-02-24T16:24:02.375Z,102987.14
2019-02-24T16:26:09.925Z,102990.85
2019-02-24T16:28:16.741Z,102989.32
2019-02-24T16:30:22.985Z,102977.41
2019-02-24T16:32:30.582Z,102983.80
2019-02-24T16:34:36.942Z,102986.27
2019-02-24T16:36:44.303Z,102996.16
2019-02-24T16:38:50.612Z,102990.73
2019-02-24T16:40:57.138Z,102987.44
2019-02-24T16:43:04.932Z,102986.80
2019-02-24T16:45:14.814Z,102980.95
2019-02-24T16:47:21.256Z,102974.67
2019-02-24T16:49:29.053Z,102970.11
2019-02-24T16:51:35.660Z,102972.13
2019-02-24T16:53:42.055Z,102978.48
2019-02-24T16:55:48.342Z,102979.66
2019-02-24T16:57:54.904Z,102977.29
2019-02-24T17:00:01.494Z,102974.22
2019-02-24T17:02:09.700Z,102977.76
2019-02-24T17:04:16.496Z,102977.34
2019-02-24T17:06:22.899Z,102973.13
2019-02-24T17:08:29.539Z,102972.60
2019-02-24T17:10:36.491Z,102977.41
2019-02-24T17:12:43.148Z,102966.02
2019-02-24T17:14:49.810Z,102963.34
2019-02-24T17:17:01.583Z,102969.27
2019-02-24T17:19:04.446Z,102968.68
2019-02-24T17:21:12.324Z,102967.59
2019-02-24T17:23:19.028Z,102972.39
2019-02-24T17:25:25.835Z,102960.19
2019-02-24T17:27:33.920Z,102966.30
2019-02-24T17:29:41.963Z,102963.57
2019-02-24T17:31:48.410Z,102962.27
2019-02-24T17:33:56.948Z,102955.68
2019-02-24T17:36:03.645Z,102959.01
2019-02-24T17:38:10.371Z,102956.62
2019-02-24T17:40:21.001Z,102962.05
2019-02-24T17:42:27.700Z,102963.97
2019-02-24T17:44:35.550Z,102963.23
2019-02-24T17:46:41.998Z,102970.81
2019-02-24T17:48:50.160Z,102970.53
2019-02-24T17:50:56.824Z,102969.55
2019-02-24T17:53:04.585Z,102973.06
2019-02-24T17:55:14.891Z,102975.61
2019-02-24T17:57:21.725Z,102978.20
2019-02-24T17:59:28.191Z,102975.95
2019-02-24T18:01:35.896Z,102968.93
2019-02-24T18:03:42.373Z,102967.09
2019-02-24T18:05:49.284Z,102964.95
2019-02-24T18:07:56.133Z,102967.42
2019-02-24T18:10:02.812Z,102972.94
2019-02-24T18:12:09.609Z,102965.33
2019-02-24T18:14:15.976Z,102962.93
2019-02-24T18:16:22.627Z,102963.62
2019-02-24T18:18:33.654Z,102957.38
2019-02-24T18:20:40.701Z,102963.60
2019-02-24T18:22:48.881Z,102968.31
2019-02-24T18:25:02.936Z,102970.41
2019-02-24T18:27:04.808Z,102968.53
2019-02-24T18:29:11.423Z,102967.67
2019-02-24T18:31:19.982Z,102957.32
2019-02-24T18:33:26.681Z,102956.50
2019-02-24T18:35:33.811Z,102950.23
2019-02-24T18:37:41.139Z,102953.55
2019-02-24T18:39:49.428Z,102947.16
2019-02-24T18:41:56.646Z,102950.17
2019-02-24T18:44:03.318Z,102956.67
2019-02-24T18:46:09.973Z,102946.62
2019-02-24T18:48:16.791Z,102949.48
2019-02-24T18:50:23.437Z,102949.30
2019-02-24T18:52:30.266Z,102952.12
2019-02-24T18:54:36.912Z,102953.25
2019-02-24T18:56:44.882Z,102944.81
2019-02-24T18:58:53.207Z,102943.84
2019-02-24T19:00:59.853Z,102945.47
2019-02-24T19:03:07.023Z,102936.75
2019-02-24T19:05:13.473Z,102945.44
2019-02-24T19:07:19.832Z,102933.84
2019-02-24T19:09:26.417Z,102936.53
2019-02-24T19:11:32.903Z,102936.12
2019-02-24T19:13:40.422Z,102924.83
2019-02-24T19:15:47.352Z,102928.62
2019-02-24T19:18:12.903Z,102931.48
2019-02-24T19:20:21.737Z,102937.34
2019-02-24T19:22:28.508Z,102934.98
2019-02-24T19:24:37.262Z,102935.78
2019-02-24T19:26:44.131Z,102930.26
2019-02-24T19:28:50.941Z,102930.91
2019-02-24T19:30:57.508Z,102930.93
2019-02-24T19:33:04.378Z,102933.50
2019-02-24T19:35:13.124Z,102932.06
2019-02-24T19:37:19.661Z,102936.67
2019-02-24T19:39:26.349Z,102933.39
2019-02-24T19:41:32.720Z,102930.33
2019-02-24T19:43:40.877Z,102927.22
2019-02-24T19:45:47.548Z,102922.77
2019-02-24T19:47:55.712Z,102928.22
2019-02-24T19:50:02.794Z,102932.50
2019-02-24T19:52:13.102Z,102936.34
2019-02-24T19:54:19.690Z,102934.60
2019-02-24T19:56:26.130Z,102936.08
2019-02-24T19:58:32.980Z,102944.77
2019-02-24T20:00:39.639Z,102940.95
2019-02-24T20:02:47.493Z,102945.42
2019-02-24T20:05:15.133Z,102943.67
2019-02-24T20:07:22.014Z,102948.02
2019-02-24T20:09:28.854Z,102943.55
2019-02-24T20:11:35.726Z,102942.61
2019-02-24T20:13:44.021Z,102942.96
2019-02-24T20:15:51.653Z,102947.12
2019-02-24T20:17:58.817Z,102944.84
2019-02-24T20:20:10.860Z,102946.88
2019-02-24T20:22:17.474Z,102941.15
2019-02-24T20:24:24.016Z,102941.81
2019-02-24T20:26:35.211Z,102945.49
2019-02-24T20:28:45.197Z,102953.06
2019-02-24T20:30:52.013Z,102948.44
2019-02-24T20:33:00.238Z,102946.57
2019-02-24T20:35:08.778Z,102950.69
2019-02-24T20:37:15.491Z,102947.83
2019-02-24T20:39:22.411Z,102952.03
2019-02-24T20:41:28.910Z,102953.20
2019-02-24T20:43:35.539Z,102956.99
2019-02-24T20:45:42.119Z,102963.31
2019-02-24T20:47:49.805Z,102962.22
2019-02-24T20:49:56.347Z,102964.65
2019-02-24T20:52:04.655Z,102964.55
2019-02-24T20:54:13.364Z,102960.95
2019-02-24T20:56:20.545Z,102958.13
2019-02-24T20:58:27.682Z,102960.06
2019-02-24T21:00:48.016Z,102958.22
2019-02-24T21:02:55.901Z,102958.97
2019-02-24T21:05:03.298Z,102959.13
2019-02-24T21:07:09.761Z,102962.02
2019-02-24T21:09:16.710Z,102964.24
2019-02-24T21:11:23.546Z,102950.39
2019-02-24T21:13:30.238Z,102952.16
2019-02-24T21:15:37.238Z,102951.38
2019-02-24T21:17:45.548Z,102953.46
2019-02-24T21:19:52.750Z,102964.03
2019-02-24T21:22:18.466Z,102968.08
2019-02-24T21:24:25.213Z,102969.08
2019-02-24T21:26:31.802Z,102979.27
2019-02-24T21:28:38.226Z,102974.34
2019-02-24T21:30:45.293Z,102976.87
2019-02-24T21:32:51.946Z,102968.16
2019-02-24T21:34:58.677Z,102964.75
2019-02-24T21:37:05.506Z,102959.60
2019-02-24T21:39:13.887Z,102955.13
2019-02-24T21:41:20.438Z,102952.42
2019-02-24T21:43:26.959Z,102948.02
2019-02-24T21:45:33.582Z,102950.12
2019-02-24T21:47:39.851Z,102948.20
2019-02-24T21:49:46.318Z,102948.09
2019-02-24T21:51:53.303Z,102957.05
2019-02-24T21:53:59.764Z,102957.70
2019-02-24T21:56:06.635Z,102959.52
2019-02-24T21:58:12.949Z,102964.42
2019-02-24T22:00:27.331Z,102966.34
2019-02-24T22:02:35.206Z,102963.62
2019-02-24T22:04:42.559Z,102962.58
2019-02-24T22:06:48.850Z,102956.03
2019-02-24T22:08:55.216Z,102947.86
2019-02-24T22:11:02.789Z,102947.05
2019-02-24T22:13:09.029Z,102946.63
2019-02-24T22:15:30.492Z,102948.79
2019-02-24T22:17:36.761Z,102942.67
2019-02-24T22:19:43.004Z,102940.56
2019-02-24T22:21:49.269Z,102944.86
2019-02-24T22:23:55.513Z,102941.75
2019-02-24T22:26:01.671Z,102946.56
2019-02-24T22:28:07.935Z,102947.86
2019-02-24T22:30:19.927Z,102946.97
2019-02-24T22:32:26.194Z,102943.97
2019-02-24T22:34:32.446Z,102949.27
2019-02-24T22:36:38.608Z,102949.27
2019-02-24T22:38:44.865Z,102956.23
2019-02-24T22:40:54.409Z,102956.23
2019-02-24T22:42:58.926Z,102953.56
2019-02-24T22:45:08.569Z,102954.45
2019-02-24T22:47:14.903Z,102951.05
2019-02-24T22:49:21.119Z,102954.81
2019-02-24T22:51:27.354Z,102951.70
2019-02-24T22:53:33.595Z,102957.20
2019-02-24T22:55:39.873Z,102954.58
2019-02-24T22:57:46.137Z,102950.25
2019-02-24T22:59:52.376Z,102952.32
2019-02-24T23:01:58.540Z,102953.98
2019-02-24T23:04:11.289Z,102951.31
2019-02-24T23:06:17.522Z,102947.83
2019-02-24T23:08:23.774Z,102950.98
2019-02-24T23:10:31.172Z,102944.55
2019-02-24T23:12:37.414Z,102943.04
2019-02-24T23:14:43.992Z,102939.80
2019-02-24T23:16:51.271Z,102933.95
2019-02-24T23:18:57.526Z,102933.78
2019-02-24T23:21:03.675Z,102930.56
2019-02-24T23:23:09.838Z,102920.65
2019-02-24T23:25:15.958Z,102927.02
2019-02-24T23:27:22.145Z,102923.02
2019-02-24T23:29:28.417Z,102923.27
2019-02-24T23:31:34.565Z,102934.44
2019-02-24T23:33:40.738Z,102935.22
2019-02-24T23:35:47.001Z,102940.22
2019-02-24T23:37:53.165Z,102936.38
2019-02-24T23:39:59.407Z,102926.08
2019-02-24T23:42:05.583Z,102930.48
2019-02-24T23:44:12.024Z,102926.91
2019-02-24T23:46:18.304Z,102918.77
2019-02-24T23:48:24.438Z,102925.23
2019-02-24T23:50:30.608Z,102924.65
2019-02-24T23:52:36.774Z,102928.79
2019-02-24T23:54:42.928Z,102923.30
2019-02-24T23:56:49.085Z,102917.97
2019-02-24T23:58:55.339Z,102912.52
